Terminal Aerodrome Forecast
Issued by NWS

Current Version | Previous Version | Text Only | Print | Product List | Glossary Off
Versions: 1 2 3 4 5 6 7 8 9 10 11 12 13 14 15 16 17 18

440
FTUS41 KILN 192320
TAFLUK
TAF
KLUK 192320Z 2000/2024 21004KT P6SM FEW250
     FM200600 00000KT 4SM BR FEW250
     FM200800 00000KT 2SM BR FEW250
      TEMPO 2008/2011 1/2SM FG SCT002
     FM201200 00000KT P6SM FEW250
     FM201700 17005KT P6SM FEW250=

USA.gov is the U.S. government's official web portal to all federal, state and local government web resources and services.